Time;durP1;ratioP1;P1;durP2;ratioP2;P2;SDS_P1;SDS_P2;PMS_P1;PMS_P2;Temp;Humidity;BMP_temperature;BMP_pressure;BME280_temperature;BME280_humidity;BME280_pressure;Samples;Min_cycle;Max_cycle;Signal;HPM_P1;HPM_P2
2022/04/04 00:01:05;;;;;;;0.77;0.70;;;15.00;66.80;;;;;;2267796;62;31239;-79
2022/04/04 00:03:31;;;;;;;1.17;1.00;;;14.90;66.80;;;;;;2267880;62;30038;-79
2022/04/04 00:05:59;;;;;;;1.30;1.00;;;14.90;66.90;;;;;;2267487;62;30088;-79
2022/04/04 00:08:25;;;;;;;1.10;0.82;;;14.90;66.90;;;;;;2267868;62;30203;-79
2022/04/04 00:10:51;;;;;;;1.52;1.10;;;14.80;66.90;;;;;;2267884;62;30240;-79
2022/04/04 00:13:20;;;;;;;1.98;0.93;;;14.80;67.00;;;;;;2267529;62;30676;-80
2022/04/04 00:15:48;;;;;;;1.55;0.90;;;14.80;67.00;;;;;;2268599;62;30054;-80
2022/04/04 00:18:16;;;;;;;0.98;0.68;;;14.70;67.00;;;;;;2268892;62;30836;-80
2022/04/04 00:20:41;;;;;;;0.60;0.60;;;14.70;67.00;;;;;;2268331;62;30457;-80
2022/04/04 00:23:16;;;;;;;1.13;1.00;;;14.70;67.00;;;;;;2269060;62;30262;-79
2022/04/04 00:25:47;;;;;;;1.13;0.90;;;14.70;67.00;;;;;;2268881;62;30361;-79
2022/04/04 00:28:14;;;;;;;2.55;0.90;;;14.60;67.10;;;;;;2268495;62;30163;-79
2022/04/04 00:30:40;;;;;;;1.42;1.10;;;14.60;67.10;;;;;;2261622;62;30457;-79
2022/04/04 00:33:06;;;;;;;1.08;0.88;;;14.60;67.10;;;;;;2261375;62;30210;-79
2022/04/04 00:35:32;;;;;;;1.40;1.33;;;14.60;67.20;;;;;;2260823;62;30277;-78
2022/04/04 00:38:01;;;;;;;1.35;0.80;;;14.50;67.20;;;;;;2261577;62;31897;-79
2022/04/04 00:40:27;;;;;;;1.30;0.80;;;14.50;67.30;;;;;;2261181;62;30405;-79
2022/04/04 00:42:53;;;;;;;1.58;0.90;;;14.50;68.10;;;;;;2267470;62;30061;-80
2022/04/04 00:45:19;;;;;;;0.85;0.80;;;14.50;67.40;;;;;;2261432;62;30107;-79
2022/04/04 00:47:45;;;;;;;0.80;0.80;;;14.40;67.50;;;;;;2268539;62;31430;-79
2022/04/04 00:50:11;;;;;;;0.98;0.77;;;14.40;67.50;;;;;;2268386;62;30395;-79
2022/04/04 00:52:39;;;;;;;1.08;0.88;;;14.40;67.50;;;;;;2261386;62;30161;-80
2022/04/04 00:55:12;;;;;;;1.02;1.00;;;14.40;67.60;;;;;;2261349;62;30071;-80
2022/04/04 00:57:39;;;;;;;0.85;0.80;;;14.30;67.70;;;;;;2268629;62;30231;-80
2022/04/04 01:00:09;;;;;;;0.85;0.80;;;14.30;67.70;;;;;;2261323;62;30201;-80
2022/04/04 01:02:36;;;;;;;1.02;0.70;;;14.30;67.80;;;;;;2260911;62;30263;-80
2022/04/04 01:05:05;;;;;;;1.42;1.05;;;14.30;68.00;;;;;;2268660;62;30124;-80
2022/04/04 01:07:32;;;;;;;0.90;0.90;;;14.20;67.80;;;;;;2261230;62;31465;-80
2022/04/04 01:09:58;;;;;;;1.23;0.90;;;14.20;67.90;;;;;;2268241;62;31787;-80
2022/04/04 01:12:24;;;;;;;1.58;1.10;;;14.20;67.90;;;;;;2268380;62;29982;-79
2022/04/04 01:14:52;;;;;;;1.77;1.00;;;14.20;68.00;;;;;;2268451;62;30528;-80
2022/04/04 01:17:21;;;;;;;1.02;1.00;;;14.20;68.00;;;;;;2268001;62;30045;-80
2022/04/04 01:19:49;;;;;;;1.02;0.80;;;14.10;68.00;;;;;;2268569;62;30492;-79
2022/04/04 01:22:15;;;;;;;0.85;0.85;;;14.10;68.00;;;;;;2261135;62;30078;-80
2022/04/04 01:24:41;;;;;;;1.23;1.13;;;14.10;68.10;;;;;;2268223;62;30272;-80
2022/04/04 01:27:08;;;;;;;1.42;1.10;;;14.10;68.10;;;;;;2266827;62;31994;-80
2022/04/04 01:29:34;;;;;;;1.10;1.00;;;14.10;68.20;;;;;;2267683;62;30739;-80
2022/04/04 01:32:00;;;;;;;1.20;1.10;;;14.10;68.30;;;;;;2267292;62;30152;-80
2022/04/04 01:34:26;;;;;;;1.20;1.13;;;14.00;68.20;;;;;;2260441;62;29973;-80
2022/04/04 01:36:52;;;;;;;1.13;1.13;;;14.00;68.30;;;;;;2261032;62;30814;-80
2022/04/04 01:39:18;;;;;;;1.42;1.33;;;14.00;68.30;;;;;;2268090;62;30214;-80
2022/04/04 01:41:44;;;;;;;1.60;1.10;;;14.00;68.40;;;;;;2268438;62;30081;-80
2022/04/04 01:44:10;;;;;;;1.58;1.27;;;14.00;68.40;;;;;;2268288;62;30037;-79
2022/04/04 01:46:36;;;;;;;2.30;1.15;;;14.00;68.50;;;;;;2267991;62;30163;-79
2022/04/04 01:49:03;;;;;;;1.50;1.40;;;14.00;68.50;;;;;;2261117;62;30113;-78
2022/04/04 01:51:32;;;;;;;1.63;1.52;;;13.90;68.50;;;;;;2268182;62;30222;-79
2022/04/04 01:53:58;;;;;;;1.60;1.50;;;13.90;68.50;;;;;;2260830;62;30034;-78
2022/04/04 01:56:24;;;;;;;2.08;1.65;;;13.90;68.60;;;;;;2254054;62;30121;-78
2022/04/04 01:58:50;;;;;;;1.35;1.25;;;13.90;68.60;;;;;;2254032;62;30836;-78
2022/04/04 02:01:21;;;;;;;1.92;1.83;;;13.90;68.60;;;;;;2253592;62;30150;-78
2022/04/04 02:03:50;;;;;;;2.25;1.60;;;13.90;68.70;;;;;;2268356;62;30103;-79
2022/04/04 02:06:18;;;;;;;1.75;1.65;;;13.80;68.60;;;;;;2268048;62;30487;-79
2022/04/04 02:08:44;;;;;;;1.90;1.80;;;13.80;68.60;;;;;;2268191;62;30072;-79
2022/04/04 02:11:13;;;;;;;3.53;2.10;;;13.80;68.60;;;;;;2260654;62;30172;-79
2022/04/04 02:13:40;;;;;;;1.90;1.77;;;13.80;68.60;;;;;;2260599;62;30021;-79
2022/04/04 02:16:09;;;;;;;1.90;1.80;;;13.80;68.60;;;;;;2260888;62;30162;-80
2022/04/04 02:18:35;;;;;;;2.00;1.90;;;13.70;68.70;;;;;;2268044;62;30617;-79
2022/04/04 02:21:03;;;;;;;3.55;1.90;;;13.70;68.70;;;;;;2254001;62;30210;-81
2022/04/04 02:23:29;;;;;;;2.22;2.08;;;13.70;68.60;;;;;;2268035;62;30273;-79
2022/04/04 02:25:55;;;;;;;2.15;2.00;;;13.70;68.60;;;;;;2267698;62;30979;-79
2022/04/04 02:28:21;;;;;;;2.78;2.42;;;13.70;68.60;;;;;;2266858;62;30550;-78
2022/04/04 02:30:49;;;;;;;2.40;2.20;;;13.70;68.60;;;;;;2260447;62;30598;-79
2022/04/04 02:33:22;;;;;;;2.50;2.30;;;13.70;68.60;;;;;;2254815;62;30303;-79
2022/04/04 02:35:50;;;;;;;2.70;2.50;;;13.70;68.60;;;;;;2253667;62;31027;-79
2022/04/04 02:38:18;;;;;;;2.60;2.25;;;13.70;68.60;;;;;;2267967;62;31128;-80
2022/04/04 02:40:47;;;;;;;2.67;2.47;;;13.70;68.60;;;;;;2260703;62;30215;-80
2022/04/04 02:43:12;;;;;;;2.50;2.30;;;13.70;68.80;;;;;;2260572;62;30699;-80
2022/04/04 02:45:38;;;;;;;2.47;2.17;;;13.70;69.00;;;;;;2268106;62;30221;-80
2022/04/04 02:48:05;;;;;;;2.72;2.50;;;13.70;69.30;;;;;;2253623;62;30750;-79
2022/04/04 02:50:31;;;;;;;3.17;2.35;;;13.70;69.60;;;;;;2267864;62;29896;-79
2022/04/04 02:52:57;;;;;;;2.58;2.38;;;13.70;69.50;;;;;;2267830;62;30091;-80
2022/04/04 02:58:07;;;;;;;2.50;2.30;;;13.80;69.60;;;;;;2267450;62;31006;-79
2022/04/04 03:00:33;;;;;;;2.80;2.50;;;13.80;69.20;;;;;;2268496;62;30175;-80
2022/04/04 03:02:59;;;;;;;2.60;2.40;;;13.80;69.00;;;;;;2268830;62;30346;-79
2022/04/04 03:05:25;;;;;;;2.60;2.40;;;13.80;68.90;;;;;;2269132;62;30974;-79
2022/04/04 03:07:54;;;;;;;2.70;2.50;;;13.80;69.10;;;;;;2255428;62;31452;-79
2022/04/04 03:10:20;;;;;;;2.40;2.20;;;13.70;68.90;;;;;;2261515;62;30238;-79
2022/04/04 03:12:47;;;;;;;2.88;2.25;;;13.70;69.30;;;;;;2255068;62;30056;-79
2022/04/04 03:15:18;;;;;;;2.65;2.45;;;13.80;69.60;;;;;;2254705;62;31034;-79
2022/04/04 03:17:45;;;;;;;2.75;2.38;;;13.80;69.60;;;;;;2268752;62;30328;-79
2022/04/04 03:20:11;;;;;;;2.30;2.10;;;13.80;69.50;;;;;;2261831;62;30274;-79
2022/04/04 03:22:40;;;;;;;2.33;2.13;;;13.80;69.10;;;;;;2261838;62;30114;-79
2022/04/04 03:25:08;;;;;;;2.78;2.30;;;13.80;69.00;;;;;;2268860;62;32249;-79
2022/04/04 03:27:37;;;;;;;3.05;2.22;;;13.80;69.20;;;;;;2255335;62;30266;-79
2022/04/04 03:30:05;;;;;;;2.60;2.42;;;13.80;68.90;;;;;;2261786;62;30209;-79
2022/04/04 03:32:31;;;;;;;2.60;2.40;;;13.80;69.10;;;;;;2269194;62;30004;-79
2022/04/04 03:35:01;;;;;;;2.42;2.30;;;13.80;69.20;;;;;;2269011;62;31497;-79
2022/04/04 03:37:27;;;;;;;2.60;2.40;;;13.80;69.40;;;;;;2268859;62;30152;-79
2022/04/04 03:39:53;;;;;;;2.25;2.10;;;13.80;69.10;;;;;;2269116;62;30308;-79
2022/04/04 03:42:22;;;;;;;2.47;2.28;;;13.80;69.10;;;;;;2268453;62;29939;-79
2022/04/04 03:44:48;;;;;;;2.55;2.33;;;13.80;69.40;;;;;;2268173;62;30100;-80
2022/04/04 03:47:14;;;;;;;2.58;2.38;;;13.80;69.50;;;;;;2268601;62;30325;-79
2022/04/04 03:49:40;;;;;;;2.85;2.53;;;13.90;69.80;;;;;;2268414;62;30057;-79
2022/04/04 03:52:10;;;;;;;2.30;2.10;;;13.90;69.40;;;;;;2268542;62;30228;-78
2022/04/04 03:54:36;;;;;;;2.22;2.03;;;13.90;69.30;;;;;;2268837;62;32362;-78
2022/04/04 03:57:04;;;;;;;2.92;2.58;;;13.90;69.10;;;;;;2261710;62;30133;-78
2022/04/04 03:59:30;;;;;;;2.53;2.33;;;13.90;69.20;;;;;;2268575;62;30281;-78
2022/04/04 04:01:56;;;;;;;2.72;2.45;;;13.90;69.30;;;;;;2261651;62;30003;-78
2022/04/04 04:04:22;;;;;;;3.08;2.40;;;13.90;69.40;;;;;;2268989;62;30022;-77
2022/04/04 04:06:49;;;;;;;2.40;2.20;;;13.90;69.60;;;;;;2268597;62;30594;-78
2022/04/04 04:09:15;;;;;;;2.78;2.25;;;13.90;69.60;;;;;;2261472;62;30243;-78
2022/04/04 04:11:41;;;;;;;2.40;2.20;;;13.90;69.80;;;;;;2268705;62;30383;-77
2022/04/04 04:14:09;;;;;;;2.40;2.20;;;13.90;69.70;;;;;;2268628;62;31023;-77
2022/04/04 04:16:34;;;;;;;2.00;1.90;;;13.90;69.40;;;;;;2261555;62;30326;-77
2022/04/04 04:19:00;;;;;;;2.83;2.15;;;14.00;69.40;;;;;;2268726;62;30003;-76
2022/04/04 04:21:26;;;;;;;2.50;2.30;;;14.00;69.20;;;;;;2268080;62;30364;-76
2022/04/04 04:23:57;;;;;;;3.05;2.60;;;14.00;69.40;;;;;;2268744;62;30345;-76
2022/04/04 04:26:26;;;;;;;2.35;1.90;;;14.00;69.20;;;;;;2268484;62;30111;-76
2022/04/04 04:28:52;;;;;;;3.17;2.45;;;13.90;69.30;;;;;;2268777;62;30257;-76
2022/04/04 04:31:18;;;;;;;2.40;2.20;;;13.90;68.90;;;;;;2268629;62;30145;-76
2022/04/04 04:33:44;;;;;;;2.50;2.30;;;13.90;69.50;;;;;;2268338;62;30940;-75
2022/04/04 04:36:10;;;;;;;2.75;2.15;;;13.90;69.50;;;;;;2268079;62;30180;-76
2022/04/04 04:38:36;;;;;;;3.08;2.55;;;13.90;69.60;;;;;;2267903;62;30005;-75
2022/04/04 04:41:02;;;;;;;4.53;2.17;;;13.90;69.70;;;;;;2260743;62;30311;-75
2022/04/04 04:43:31;;;;;;;2.45;2.20;;;13.90;69.80;;;;;;2261261;62;32170;-76
2022/04/04 04:45:56;;;;;;;2.40;2.20;;;13.90;69.80;;;;;;2268624;62;30280;-76
2022/04/04 04:48:22;;;;;;;2.97;2.30;;;14.00;69.70;;;;;;2268310;62;29981;-75
2022/04/04 04:50:48;;;;;;;2.78;2.28;;;13.90;69.70;;;;;;2268474;62;30102;-76
2022/04/04 04:53:17;;;;;;;2.95;2.50;;;14.00;69.60;;;;;;2268536;62;30069;-75
2022/04/04 04:55:43;;;;;;;2.80;2.60;;;14.00;69.30;;;;;;2260947;62;31607;-76
2022/04/04 04:58:12;;;;;;;3.30;2.28;;;13.90;69.30;;;;;;2268502;62;30125;-76
2022/04/04 05:00:38;;;;;;;3.78;2.30;;;14.00;69.60;;;;;;2268483;62;30367;-75
2022/04/04 05:05:49;;;;;;;2.65;2.45;;;14.00;69.30;;;;;;2268242;62;30616;-76
2022/04/04 05:08:15;;;;;;;4.88;2.40;;;14.00;69.70;;;;;;2268303;62;29984;-76
2022/04/04 05:10:44;;;;;;;2.85;2.30;;;13.90;69.60;;;;;;2268271;62;30043;-76
2022/04/04 05:13:10;;;;;;;3.15;2.33;;;14.00;69.30;;;;;;2246683;63;30875;-76
2022/04/04 05:15:36;;;;;;;2.70;2.50;;;13.90;69.40;;;;;;2251792;63;30150;-76
2022/04/04 05:18:02;;;;;;;3.15;2.53;;;14.00;69.40;;;;;;2251750;63;30741;-76
2022/04/04 05:20:29;;;;;;;2.10;2.00;;;14.00;69.30;;;;;;2244916;63;29962;-76
2022/04/04 05:22:55;;;;;;;3.42;2.45;;;14.00;69.10;;;;;;2251751;63;30062;-75
2022/04/04 05:25:23;;;;;;;2.60;2.20;;;14.00;70.00;;;;;;2252105;63;31926;-75
2022/04/04 05:27:50;;;;;;;2.35;2.15;;;14.00;69.20;;;;;;2252188;63;30158;-75
2022/04/04 05:30:16;;;;;;;3.03;2.13;;;14.00;69.30;;;;;;2252045;63;30539;-76
2022/04/04 05:32:43;;;;;;;3.05;2.22;;;14.00;69.20;;;;;;2251497;63;30173;-76
2022/04/04 05:35:11;;;;;;;2.55;2.00;;;14.00;69.20;;;;;;2252145;63;30155;-75
2022/04/04 05:37:41;;;;;;;2.70;1.95;;;14.00;69.60;;;;;;2244923;63;30001;-75
2022/04/04 05:40:07;;;;;;;4.40;2.00;;;14.00;69.20;;;;;;2252125;63;30578;-75
2022/04/04 05:42:36;;;;;;;2.30;2.10;;;14.00;69.30;;;;;;2251469;63;30948;-75
2022/04/04 05:45:02;;;;;;;2.78;2.10;;;14.00;69.30;;;;;;2251539;63;30222;-75
2022/04/04 05:47:27;;;;;;;2.58;2.20;;;14.00;69.30;;;;;;2244563;63;30254;-75
2022/04/04 05:49:53;;;;;;;2.33;2.10;;;14.00;69.20;;;;;;2252180;63;30043;-75
2022/04/04 05:52:20;;;;;;;2.30;2.00;;;14.00;69.20;;;;;;2251738;63;30773;-75
2022/04/04 05:54:57;;;;;;;2.17;1.95;;;14.00;69.30;;;;;;2252128;63;31933;-75
2022/04/04 05:57:28;;;;;;;1.98;1.80;;;14.10;69.30;;;;;;2245593;63;30194;-75
2022/04/04 05:59:54;;;;;;;2.88;2.15;;;14.10;69.00;;;;;;2251477;63;30247;-75
2022/04/04 06:02:21;;;;;;;2.50;1.88;;;14.10;68.60;;;;;;2244793;63;31195;-75
2022/04/04 06:04:47;;;;;;;2.05;1.85;;;14.10;68.50;;;;;;2251629;63;30808;-75
2022/04/04 06:07:13;;;;;;;3.13;1.90;;;14.00;68.80;;;;;;2252035;63;30116;-75
2022/04/04 06:09:42;;;;;;;2.42;1.83;;;14.00;68.80;;;;;;2251916;63;30331;-75
2022/04/04 06:12:08;;;;;;;2.00;1.80;;;14.00;69.10;;;;;;2256831;62;31067;-75
2022/04/04 06:14:37;;;;;;;2.28;1.80;;;14.00;69.20;;;;;;2268191;62;30075;-75
2022/04/04 06:17:06;;;;;;;2.60;1.95;;;14.00;69.20;;;;;;2267215;62;30023;-75
2022/04/04 06:19:34;;;;;;;2.42;1.42;;;14.00;69.00;;;;;;2260483;62;30025;-75
2022/04/04 06:22:01;;;;;;;1.95;1.75;;;14.00;68.90;;;;;;2254051;62;31338;-75
2022/04/04 06:24:27;;;;;;;1.67;1.52;;;14.00;69.00;;;;;;2260646;62;30714;-75
2022/04/04 06:26:55;;;;;;;2.13;1.52;;;14.00;69.40;;;;;;2267923;62;30359;-75
2022/04/04 06:29:21;;;;;;;2.13;1.70;;;14.00;69.00;;;;;;2267991;62;29980;-76
2022/04/04 06:31:46;;;;;;;1.88;1.50;;;14.00;68.80;;;;;;2267887;62;30801;-76
2022/04/04 06:34:15;;;;;;;1.73;1.38;;;14.00;69.20;;;;;;2268456;62;30798;-76
2022/04/04 06:36:41;;;;;;;1.88;1.27;;;14.00;68.90;;;;;;2269321;62;30176;-76
2022/04/04 06:39:07;;;;;;;1.30;1.20;;;14.00;69.10;;;;;;2262071;62;30092;-76
2022/04/04 06:41:33;;;;;;;1.33;1.23;;;14.10;69.40;;;;;;2261491;62;31331;-76
2022/04/04 06:43:59;;;;;;;1.65;1.20;;;14.10;69.40;;;;;;2261920;62;30243;-76
2022/04/04 06:46:28;;;;;;;2.55;1.30;;;14.10;69.40;;;;;;2269191;62;30260;-76
2022/04/04 06:48:54;;;;;;;2.03;1.17;;;14.10;68.80;;;;;;2255319;62;30199;-76
2022/04/04 06:51:20;;;;;;;2.78;1.20;;;14.10;69.00;;;;;;2269338;62;30153;-77
2022/04/04 06:53:46;;;;;;;1.30;1.20;;;14.10;69.10;;;;;;2269135;62;30097;-76
2022/04/04 06:56:13;;;;;;;1.70;1.17;;;14.10;69.00;;;;;;2261730;62;30119;-76
2022/04/04 06:58:39;;;;;;;0.90;0.85;;;14.20;69.20;;;;;;2269308;62;29966;-73
2022/04/04 07:01:05;;;;;;;1.30;1.20;;;14.20;68.90;;;;;;2268995;62;31045;-73
2022/04/04 07:03:33;;;;;;;1.70;1.10;;;14.20;68.90;;;;;;2269280;62;30745;-75
2022/04/04 07:05:59;;;;;;;3.38;1.30;;;14.20;68.50;;;;;;2262217;62;30007;-75
2022/04/04 07:08:25;;;;;;;4.75;1.42;;;14.20;69.10;;;;;;2268973;62;30231;-73
2022/04/04 07:10:54;;;;;;;2.65;1.00;;;14.20;69.00;;;;;;2261587;62;30116;-74
2022/04/04 07:13:20;;;;;;;4.60;1.20;;;14.20;68.80;;;;;;2261236;62;30202;-74
2022/04/04 07:15:45;;;;;;;2.13;1.30;;;14.20;68.60;;;;;;2268826;62;30050;-74
2022/04/04 07:18:12;;;;;;;1.23;1.10;;;14.20;68.50;;;;;;2269353;62;30147;-73
2022/04/04 07:20:38;;;;;;;6.85;1.52;;;14.30;68.60;;;;;;2269190;62;31948;-73
2022/04/04 07:23:05;;;;;;;1.40;1.25;;;14.30;68.40;;;;;;2268976;62;30606;-73
2022/04/04 07:25:30;;;;;;;4.93;1.65;;;14.30;68.50;;;;;;2269011;62;30073;-73
2022/04/04 07:27:58;;;;;;;3.42;1.55;;;14.30;69.40;;;;;;2261509;62;30347;-73
2022/04/04 07:30:27;;;;;;;4.53;1.55;;;14.30;68.90;;;;;;2268656;62;30879;-73
2022/04/04 07:32:56;;;;;;;3.92;1.60;;;14.30;68.70;;;;;;2261786;62;30437;-73
2022/04/04 07:35:22;;;;;;;1.83;1.38;;;14.30;68.50;;;;;;2269062;62;30247;-73
2022/04/04 07:37:49;;;;;;;2.85;1.60;;;14.30;68.40;;;;;;2268901;62;30217;-73
2022/04/04 07:40:16;;;;;;;1.98;1.70;;;14.30;68.30;;;;;;2254989;62;30961;-73
2022/04/04 07:42:43;;;;;;;2.65;1.80;;;14.40;68.70;;;;;;2268384;62;29978;-72
2022/04/04 07:45:10;;;;;;;2.60;1.67;;;14.40;68.20;;;;;;2260988;62;30338;-72
2022/04/04 07:47:36;;;;;;;1.65;1.30;;;14.40;68.80;;;;;;2261644;62;30093;-73
2022/04/04 07:50:02;;;;;;;2.13;1.58;;;14.40;68.30;;;;;;2261433;62;31192;-72
2022/04/04 07:52:28;;;;;;;8.07;2.05;;;14.40;68.50;;;;;;2268475;62;30114;-72
2022/04/04 07:54:56;;;;;;;3.53;1.50;;;14.40;68.70;;;;;;2268938;62;29948;-73
2022/04/04 07:57:25;;;;;;;1.60;1.50;;;14.40;68.40;;;;;;2268608;62;30569;-74
2022/04/04 07:59:51;;;;;;;2.63;1.60;;;14.40;68.30;;;;;;2261555;62;31944;-73
2022/04/04 08:02:18;;;;;;;2.50;1.70;;;14.40;68.70;;;;;;2268926;62;30131;-74
2022/04/04 08:04:44;;;;;;;2.05;1.45;;;14.40;68.50;;;;;;2268612;62;30218;-74
2022/04/04 08:07:10;;;;;;;2.70;1.20;;;14.40;68.30;;;;;;2268773;62;30285;-73
2022/04/04 08:09:43;;;;;;;2.53;1.67;;;14.40;68.20;;;;;;2268814;62;30242;-74
2022/04/04 08:12:09;;;;;;;1.58;1.48;;;14.40;68.30;;;;;;2268406;62;30551;-73
2022/04/04 08:14:36;;;;;;;1.67;1.17;;;14.40;68.10;;;;;;2261612;62;30100;-74
2022/04/04 08:17:03;;;;;;;1.75;1.30;;;14.40;69.00;;;;;;2268432;62;30109;-74
2022/04/04 08:19:30;;;;;;;2.97;1.65;;;14.40;68.40;;;;;;2268043;62;30442;-73
2022/04/04 08:21:56;;;;;;;2.28;1.48;;;14.40;68.50;;;;;;2261280;62;30709;-73
2022/04/04 08:24:25;;;;;;;1.50;1.30;;;14.40;68.50;;;;;;2261477;62;30158;-73
2022/04/04 08:26:52;;;;;;;1.38;1.27;;;14.40;68.10;;;;;;2268697;62;29968;-74
2022/04/04 08:29:20;;;;;;;2.17;1.50;;;14.50;68.50;;;;;;2261509;62;31005;-74
2022/04/04 08:31:45;;;;;;;1.40;1.30;;;14.50;68.10;;;;;;2268733;62;30978;-73
2022/04/04 08:34:12;;;;;;;1.67;1.30;;;14.50;68.10;;;;;;2267749;62;30044;-74
2022/04/04 08:36:38;;;;;;;1.45;1.35;;;14.50;68.10;;;;;;2268070;62;30215;-73
2022/04/04 08:39:04;;;;;;;1.55;1.40;;;14.50;68.10;;;;;;2268587;62;30101;-74
2022/04/04 08:41:31;;;;;;;1.55;1.45;;;14.50;68.30;;;;;;2268404;62;30801;-81
2022/04/04 08:44:01;;;;;;;1.60;1.40;;;14.40;67.90;;;;;;2255159;62;30309;-81
2022/04/04 08:46:28;;;;;;;2.03;1.48;;;14.50;68.00;;;;;;2254611;62;30309;-80
2022/04/04 08:48:57;;;;;;;1.27;1.10;;;14.50;68.20;;;;;;2268371;62;30888;-81
2022/04/04 08:51:24;;;;;;;1.70;1.52;;;14.50;68.00;;;;;;2268442;62;30687;-82
2022/04/04 08:53:50;;;;;;;1.90;1.20;;;14.50;68.10;;;;;;2261230;62;30105;-84
2022/04/04 08:56:21;;;;;;;1.30;1.17;;;14.50;68.20;;;;;;2268271;62;30092;-84
2022/04/04 08:58:47;;;;;;;1.45;1.20;;;14.50;68.20;;;;;;2261559;62;30117;-82
2022/04/04 09:01:12;;;;;;;1.30;1.10;;;14.50;68.10;;;;;;2268193;62;31640;-82
2022/04/04 09:03:38;;;;;;;1.55;1.05;;;14.50;68.00;;;;;;2261117;62;30282;-75
2022/04/04 09:06:05;;;;;;;2.22;1.10;;;14.40;68.00;;;;;;2268466;62;30325;-78
2022/04/04 09:08:45;;;;;;;0.95;0.82;;;14.50;68.00;;;;;;2267180;62;31015;-76
2022/04/04 09:11:14;;;;;;;1.65;1.23;;;14.50;68.20;;;;;;2254024;62;30604;-75
2022/04/04 09:13:43;;;;;;;1.27;0.90;;;14.50;68.20;;;;;;2254618;62;30152;-76
2022/04/04 09:16:10;;;;;;;1.70;0.80;;;14.40;68.00;;;;;;2268136;62;30085;-83
2022/04/04 09:18:41;;;;;;;0.77;0.75;;;14.50;68.20;;;;;;2268310;62;31896;-84
2022/04/04 09:21:09;;;;;;;2.00;1.00;;;14.40;68.10;;;;;;2268308;62;30060;-83
2022/04/04 09:23:36;;;;;;;1.98;1.30;;;14.50;68.00;;;;;;2260914;62;30134;-84
2022/04/04 09:26:05;;;;;;;1.05;1.05;;;14.40;68.00;;;;;;2254254;62;30239;-84
2022/04/04 09:28:31;;;;;;;0.77;0.77;;;14.50;69.10;;;;;;2254381;62;30978;-83
2022/04/04 09:31:06;;;;;;;1.10;0.85;;;14.40;68.20;;;;;;2267530;62;31164;-84
2022/04/04 09:33:36;;;;;;;1.30;1.20;;;14.40;68.00;;;;;;2269998;62;29298;-83
2022/04/04 09:36:03;;;;;;;1.55;1.05;;;14.40;68.10;;;;;;2261806;62;30819;-83
2022/04/04 09:38:30;;;;;;;1.20;0.75;;;14.40;68.50;;;;;;2268325;62;30960;-82
2022/04/04 09:40:59;;;;;;;1.10;0.90;;;14.50;68.10;;;;;;2260864;62;30669;-83
2022/04/04 09:43:25;;;;;;;0.80;0.80;;;14.50;68.50;;;;;;2267922;62;30185;-82
2022/04/04 09:45:52;;;;;;;0.90;0.90;;;14.50;68.20;;;;;;2268372;62;30174;-83
2022/04/04 09:48:19;;;;;;;0.98;0.90;;;14.50;68.10;;;;;;2254640;62;30073;-82
2022/04/04 09:50:49;;;;;;;0.90;0.70;;;14.50;68.20;;;;;;2267840;62;30034;-77
2022/04/04 09:53:22;;;;;;;0.95;0.90;;;14.50;68.00;;;;;;2260903;62;30237;-82
2022/04/04 09:55:49;;;;;;;1.55;0.82;;;14.50;67.90;;;;;;2271991;62;30191;-74
2022/04/04 09:58:19;;;;;;;2.08;1.13;;;14.50;68.10;;;;;;2262132;62;30233;-81
2022/04/04 10:00:45;;;;;;;1.20;1.08;;;14.50;68.10;;;;;;2268891;62;31823;-84
2022/04/04 10:03:15;;;;;;;0.75;0.75;;;14.50;68.20;;;;;;2268387;62;30047;-77
2022/04/04 10:05:42;;;;;;;0.82;0.82;;;14.50;68.30;;;;;;2268603;62;30029;-78
2022/04/04 10:08:08;;;;;;;0.82;0.60;;;14.40;68.20;;;;;;2261196;62;32310;-78
2022/04/04 10:10:34;;;;;;;0.52;0.50;;;14.50;68.70;;;;;;2260595;62;30552;-79
2022/04/04 10:13:00;;;;;;;2.17;0.88;;;14.50;68.30;;;;;;2246129;63;30566;-86
2022/04/04 10:15:27;;;;;;;0.70;0.70;;;14.50;68.10;;;;;;2251410;63;30182;-84
2022/04/04 10:17:54;;;;;;;0.98;0.80;;;14.50;68.20;;;;;;2251237;63;31358;-83
2022/04/04 10:20:20;;;;;;;1.45;0.70;;;14.60;68.50;;;;;;2244210;63;30374;-84
2022/04/04 10:22:47;;;;;;;0.80;0.80;;;14.50;68.20;;;;;;2250805;63;30133;-83
2022/04/04 10:25:17;;;;;;;1.33;0.80;;;14.50;68.70;;;;;;2244216;63;30665;-82
2022/04/04 10:27:49;;;;;;;0.98;0.77;;;14.50;68.10;;;;;;2250645;63;32140;-82
2022/04/04 10:30:16;;;;;;;;;;;14.50;68.50;;;;;;2245149;63;30188;-86
2022/04/04 10:32:49;;;;;;;3.88;0.95;;;14.50;68.10;;;;;;2251913;63;30101;-86
2022/04/04 10:35:22;;;;;;;1.40;0.73;;;14.50;68.60;;;;;;2252126;63;30276;-85
2022/04/04 10:37:49;;;;;;;1.25;0.77;;;14.50;69.20;;;;;;2251358;63;31372;-86
2022/04/04 10:40:24;;;;;;;0.95;0.70;;;14.60;68.40;;;;;;2244485;63;30412;-85
2022/04/04 10:43:14;;;;;;;1.55;0.95;;;14.50;68.50;;;;;;2251038;63;30255;-86
2022/04/04 10:45:54;;;;;;;0.90;0.90;;;14.50;68.20;;;;;;2251306;63;30275;-86
2022/04/04 10:48:20;;;;;;;1.70;0.70;;;14.50;68.80;;;;;;2251094;63;30183;-86
2022/04/04 10:50:47;;;;;;;1.40;0.68;;;14.50;68.50;;;;;;2244741;63;30715;-86
2022/04/04 10:53:12;;;;;;;2.42;0.50;;;14.50;69.10;;;;;;2250544;63;30146;-86
2022/04/04 10:55:43;;;;;;;1.42;0.70;;;14.50;69.10;;;;;;2251123;63;30152;-86
2022/04/04 10:58:19;;;;;;;0.88;0.45;;;14.50;68.70;;;;;;2250785;63;32079;-86
2022/04/04 11:01:03;;;;;;;0.90;0.63;;;14.50;68.60;;;;;;2251405;63;31121;-85
2022/04/04 11:03:39;;;;;;;1.90;0.65;;;14.50;68.80;;;;;;2251729;63;30282;-84
2022/04/04 11:09:12;;;;;;;0.52;0.50;;;14.60;68.80;;;;;;2251014;63;30860;-85
2022/04/04 11:12:00;;;;;;;;;;;;;;;;;;;;;
2022/04/04 11:14:39;;;;;;;0.43;0.43;;;14.50;68.40;;;;;;2267657;62;29989;-84
2022/04/04 11:17:17;;;;;;;0.60;0.60;;;14.50;68.80;;;;;;2267593;62;30258;-83
2022/04/04 11:22:47;;;;;;;1.25;0.80;;;14.50;68.70;;;;;;2238316;63;30369;-86
2022/04/04 11:25:25;;;;;;;;;;;;;;;;;;;;;
2022/04/04 11:27:52;;;;;;;1.83;0.93;;;14.50;68.60;;;;;;2244026;63;30145;-83
2022/04/04 11:30:19;;;;;;;1.38;0.73;;;14.50;68.60;;;;;;2242790;63;30740;-87
2022/04/04 11:32:49;;;;;;;1.55;0.75;;;14.50;68.70;;;;;;2243430;63;30239;-84
2022/04/04 11:35:21;;;;;;;1.00;0.90;;;14.50;68.60;;;;;;2243625;63;30221;-86
2022/04/04 11:37:51;;;;;;;1.63;0.90;;;14.50;68.70;;;;;;2242808;63;30220;-83
2022/04/04 11:40:25;;;;;;;2.25;0.75;;;14.50;68.80;;;;;;2242868;63;30855;-84
2022/04/04 11:45:41;;;;;;;1.60;0.63;;;14.50;69.70;;;;;;2217290;64;30233;-83
2022/04/04 11:48:25;;;;;;;1.67;0.75;;;14.50;69.10;;;;;;2218290;64;30250;-83
2022/04/04 11:50:57;;;;;;;2.78;1.02;;;14.50;69.60;;;;;;2217355;64;31129;-84
2022/04/04 11:53:25;;;;;;;0.70;0.60;;;14.50;69.20;;;;;;2227551;63;31688;-84
2022/04/04 11:55:56;;;;;;;0.80;0.80;;;14.50;69.60;;;;;;2229012;63;30335;-84
2022/04/04 11:58:25;;;;;;;0.38;0.38;;;14.50;69.20;;;;;;2222604;63;30199;-82
2022/04/04 12:00:55;;;;;;;1.20;0.85;;;14.50;69.30;;;;;;2229020;63;30763;-83
2022/04/04 12:03:25;;;;;;;1.70;0.68;;;14.50;69.20;;;;;;2229139;63;30680;-83
2022/04/04 12:05:51;;;;;;;2.03;0.77;;;14.50;69.30;;;;;;2229102;63;30371;-84
2022/04/04 12:08:21;;;;;;;1.08;0.60;;;14.50;69.50;;;;;;2236517;63;30228;-83
2022/04/04 12:10:47;;;;;;;0.98;0.22;;;14.50;70.50;;;;;;2234761;63;30841;-82
2022/04/04 12:13:19;;;;;;;2.00;0.45;;;14.50;69.80;;;;;;2228780;63;30227;-81
2022/04/04 12:15:46;;;;;;;1.33;0.63;;;14.50;69.50;;;;;;2242003;63;30291;-82
2022/04/04 12:18:18;;;;;;;0.40;0.30;;;14.50;69.50;;;;;;2252925;63;30205;-82
2022/04/04 12:20:44;;;;;;;;;;;14.60;69.50;;;;;;2253865;63;30153;-82
2022/04/04 12:26:06;;;;;;;0.85;0.40;;;14.60;69.30;;;;;;2248827;63;30124;-83
2022/04/04 12:28:34;;;;;;;1.23;0.70;;;14.60;69.40;;;;;;2260613;63;30451;-83
2022/04/04 12:31:14;;;;;;;1.50;0.30;;;14.60;69.70;;;;;;2253347;63;30257;-83
2022/04/04 12:33:42;;;;;;;0.77;0.60;;;14.60;70.20;;;;;;2246860;63;32318;-83
2022/04/04 12:36:08;;;;;;;1.25;0.40;;;14.60;70.00;;;;;;2253312;63;30200;-82
2022/04/04 12:38:39;;;;;;;0.50;0.50;;;14.60;69.80;;;;;;2246434;63;30321;-83
2022/04/04 12:41:16;;;;;;;0.55;0.22;;;14.60;69.60;;;;;;2253321;63;31041;-81
2022/04/04 12:43:46;;;;;;;0.60;0.60;;;14.60;70.40;;;;;;2253346;63;31017;-86
2022/04/04 12:46:26;;;;;;;0.95;0.50;;;14.60;70.10;;;;;;2253088;63;30283;-84
2022/04/04 12:48:52;;;;;;;0.85;0.35;;;14.60;70.00;;;;;;2253335;63;30062;-85
2022/04/04 12:51:31;;;;;;;0.30;0.30;;;14.60;70.10;;;;;;2260499;63;29957;-84
2022/04/04 12:53:58;;;;;;;0.30;0.20;;;14.60;69.90;;;;;;2253383;63;30279;-82
2022/04/04 12:56:26;;;;;;;2.10;0.50;;;14.60;70.10;;;;;;2253279;63;30189;-82
2022/04/04 12:59:08;;;;;;;1.40;0.77;;;14.60;70.10;;;;;;2260516;63;30004;-83
2022/04/04 13:01:34;;;;;;;0.40;0.35;;;14.60;70.50;;;;;;2260301;63;30136;-84
2022/04/04 13:04:00;;;;;;;2.65;0.77;;;14.60;70.30;;;;;;2260473;63;31246;-84
2022/04/04 13:06:30;;;;;;;0.40;0.30;;;14.60;70.30;;;;;;2252797;63;30342;-84
2022/04/04 13:08:59;;;;;;;0.93;0.35;;;14.60;70.20;;;;;;2252968;63;30205;-84
2022/04/04 13:11:26;;;;;;;0.55;0.40;;;14.60;70.10;;;;;;2251101;62;30136;-83